Time;durP1;ratioP1;P1;durP2;ratioP2;P2;SDS_P1;SDS_P2;PMS_P1;PMS_P2;Temp;Humidity;BMP_temperature;BMP_pressure;BME280_temperature;BME280_humidity;BME280_pressure;Samples;Min_cycle;Max_cycle;Signal;HPM_P1;HPM_P2
2024/01/01 00:00:43;;;;;;;86.35;36.20;;;;;;;;;;4937354;29;20259;-67
2024/01/01 00:03:08;;;;;;;82.65;36.03;;;;;;;;;;4934025;29;20024;-66
2024/01/01 00:05:33;;;;;;;74.97;29.88;;;;;;;;;;4951174;28;20025;-67
2024/01/01 00:07:58;;;;;;;70.18;29.63;;;;;;;;;;4974305;28;20031;-67
2024/01/01 00:10:24;;;;;;;55.88;27.70;;;;;;;;;;4938065;29;20429;-67
2024/01/01 00:12:49;;;;;;;67.80;26.93;;;;;;;;;;4933842;29;20498;-67
2024/01/01 00:15:14;;;;;;;56.13;23.97;;;;;;;;;;4933982;29;20297;-67
2024/01/01 00:17:40;;;;;;;74.57;35.47;;;;;;;;;;4938400;29;20267;-67
2024/01/01 00:20:06;;;;;;;54.28;22.35;;;;;;;;;;4970593;28;20023;-67
2024/01/01 00:22:31;;;;;;;68.95;26.10;;;;;;;;;;4977238;28;20035;-66
2024/01/01 00:24:57;;;;;;;75.93;33.13;;;;;;;;;;4955309;28;20028;-67
2024/01/01 00:27:22;;;;;;;44.30;19.92;;;;;;;;;;4939768;28;20271;-67
2024/01/01 00:29:47;;;;;;;59.43;20.40;;;;;;;;;;4995050;28;20326;-67
2024/01/01 00:32:12;;;;;;;52.67;19.00;;;;;;;;;;4943095;28;20309;-67
2024/01/01 00:34:38;;;;;;;31.23;15.65;;;;;;;;;;4938476;28;20352;-67
2024/01/01 00:37:03;;;;;;;56.97;24.73;;;;;;;;;;4949556;28;20567;-67
2024/01/01 00:39:28;;;;;;;48.95;23.17;;;;;;;;;;4979108;28;20296;-67
2024/01/01 00:41:53;;;;;;;70.30;29.80;;;;;;;;;;4940475;29;20024;-67
2024/01/01 00:44:19;;;;;;;49.77;19.77;;;;;;;;;;4939505;29;20478;-67
2024/01/01 00:46:44;;;;;;;29.58;13.90;;;;;;;;;;4937342;29;20256;-67
2024/01/01 00:49:09;;;;;;;39.43;16.33;;;;;;;;;;4942344;29;20065;-67
2024/01/01 00:51:34;;;;;;;48.03;20.57;;;;;;;;;;4941727;28;20259;-67
2024/01/01 00:53:59;;;;;;;29.20;12.93;;;;;;;;;;4985826;28;20271;-67
2024/01/01 00:56:24;;;;;;;49.93;21.93;;;;;;;;;;4984081;28;20089;-67
2024/01/01 00:58:50;;;;;;;60.23;22.60;;;;;;;;;;4943588;28;20364;-67
2024/01/01 01:01:15;;;;;;;52.47;19.70;;;;;;;;;;4962356;28;20252;-67
2024/01/01 01:03:40;;;;;;;36.30;13.80;;;;;;;;;;4942285;29;20809;-67
2024/01/01 01:06:05;;;;;;;28.30;10.07;;;;;;;;;;4944680;29;20277;-67
2024/01/01 01:08:30;;;;;;;19.90;7.77;;;;;;;;;;4941375;28;20291;-67
2024/01/01 01:10:56;;;;;;;16.77;5.22;;;;;;;;;;4958008;28;21107;-67
2024/01/01 01:13:21;;;;;;;13.63;5.00;;;;;;;;;;4971527;28;20026;-67
2024/01/01 01:15:46;;;;;;;11.07;3.63;;;;;;;;;;4977191;28;20043;-67
2024/01/01 01:18:11;;;;;;;15.35;4.60;;;;;;;;;;4938549;28;20662;-67
2024/01/01 01:20:36;;;;;;;12.57;4.57;;;;;;;;;;4937168;28;20578;-67
2024/01/01 01:23:02;;;;;;;12.60;5.38;;;;;;;;;;4954407;28;20256;-68
2024/01/01 01:25:27;;;;;;;6.60;2.00;;;;;;;;;;4979896;28;20019;-68
2024/01/01 01:27:52;;;;;;;11.80;3.38;;;;;;;;;;4954261;28;20027;-67
2024/01/01 01:30:18;;;;;;;15.97;5.23;;;;;;;;;;4957819;28;20066;-67
2024/01/01 01:32:43;;;;;;;9.32;4.20;;;;;;;;;;4938383;28;20303;-67
2024/01/01 01:35:08;;;;;;;19.23;3.40;;;;;;;;;;4958156;28;20084;-67
2024/01/01 01:37:33;;;;;;;5.82;2.30;;;;;;;;;;4940927;29;20750;-67
2024/01/01 01:39:58;;;;;;;7.88;2.42;;;;;;;;;;4942595;28;20072;-67
2024/01/01 01:42:24;;;;;;;15.33;2.60;;;;;;;;;;4966193;28;20025;-67
2024/01/01 01:44:49;;;;;;;7.30;1.60;;;;;;;;;;4961568;28;20268;-66
2024/01/01 01:47:14;;;;;;;11.37;2.73;;;;;;;;;;4943619;29;20295;-67
2024/01/01 01:49:40;;;;;;;11.68;2.15;;;;;;;;;;4942023;29;20264;-67
2024/01/01 01:52:06;;;;;;;8.10;3.40;;;;;;;;;;4940528;28;20024;-67
2024/01/01 01:54:33;;;;;;;5.15;1.35;;;;;;;;;;4955153;28;20028;-66
2024/01/01 01:56:58;;;;;;;15.10;2.47;;;;;;;;;;4936847;28;20023;-67
2024/01/01 01:59:23;;;;;;;13.50;2.42;;;;;;;;;;4992070;28;20036;-67
2024/01/01 02:01:49;;;;;;;9.35;2.05;;;;;;;;;;4944791;28;20081;-67
2024/01/01 02:04:15;;;;;;;7.50;2.22;;;;;;;;;;4941117;29;20038;-66
2024/01/01 02:06:41;;;;;;;10.75;2.33;;;;;;;;;;4944842;28;20036;-67
2024/01/01 02:09:06;;;;;;;6.68;1.83;;;;;;;;;;4955580;28;20095;-67
2024/01/01 02:11:32;;;;;;;10.23;1.85;;;;;;;;;;4938156;28;20406;-67
2024/01/01 02:14:10;;;;;;;8.20;2.38;;;;;;;;;;4940275;28;20031;-67
2024/01/01 02:16:35;;;;;;;12.25;2.08;;;;;;;;;;4973372;28;20049;-67
2024/01/01 02:19:00;;;;;;;8.82;1.35;;;;;;;;;;4939702;28;20065;-67
2024/01/01 02:21:27;;;;;;;16.53;1.87;;;;;;;;;;4954477;28;20064;-68
2024/01/01 02:23:52;;;;;;;13.10;2.17;;;;;;;;;;4973252;28;20723;-67
2024/01/01 02:26:18;;;;;;;16.48;2.17;;;;;;;;;;4953482;28;20051;-67
2024/01/01 02:28:43;;;;;;;5.20;0.90;;;;;;;;;;4961797;28;20391;-67
2024/01/01 02:31:08;;;;;;;12.45;2.25;;;;;;;;;;4957021;28;20034;-67
2024/01/01 02:33:33;;;;;;;19.93;2.90;;;;;;;;;;4971534;28;20479;-67
2024/01/01 02:35:58;;;;;;;8.15;1.85;;;;;;;;;;4953346;28;20312;-67
2024/01/01 02:38:23;;;;;;;21.63;3.70;;;;;;;;;;4960981;28;20090;-68
2024/01/01 02:40:49;;;;;;;10.07;2.43;;;;;;;;;;4940679;28;20264;-67
2024/01/01 02:43:14;;;;;;;9.00;1.87;;;;;;;;;;4946118;28;20362;-67
2024/01/01 02:45:39;;;;;;;4.38;1.02;;;;;;;;;;4950484;28;20762;-67
2024/01/01 02:48:04;;;;;;;6.18;1.45;;;;;;;;;;4949054;28;20036;-66
2024/01/01 02:50:30;;;;;;;16.55;2.08;;;;;;;;;;4973550;28;20032;-66
2024/01/01 02:52:55;;;;;;;13.98;2.40;;;;;;;;;;4956384;28;20027;-66
2024/01/01 02:55:20;;;;;;;10.75;1.88;;;;;;;;;;4960588;28;20031;-67
2024/01/01 02:57:45;;;;;;;18.73;2.50;;;;;;;;;;4937413;29;20035;-66
2024/01/01 03:00:14;;;;;;;16.90;1.57;;;;;;;;;;4944109;29;20400;-67
2024/01/01 03:02:39;;;;;;;16.77;2.03;;;;;;;;;;4941699;28;20256;-67
2024/01/01 03:05:05;;;;;;;10.63;1.43;;;;;;;;;;4945836;28;20084;-67
2024/01/01 03:07:30;;;;;;;17.35;2.00;;;;;;;;;;4967603;28;20280;-67
2024/01/01 03:09:56;;;;;;;13.07;1.27;;;;;;;;;;4971439;28;20039;-67
2024/01/01 03:12:21;;;;;;;6.13;1.13;;;;;;;;;;4948576;28;20345;-67
2024/01/01 03:14:46;;;;;;;6.35;1.63;;;;;;;;;;4936559;29;20295;-67
2024/01/01 03:17:11;;;;;;;25.50;2.03;;;;;;;;;;4931214;29;20033;-67
2024/01/01 03:19:36;;;;;;;7.10;1.80;;;;;;;;;;4952699;28;20256;-67
2024/01/01 03:22:01;;;;;;;11.57;1.60;;;;;;;;;;4963409;28;20294;-67
2024/01/01 03:24:27;;;;;;;3.63;1.43;;;;;;;;;;4962876;28;20373;-67
2024/01/01 03:26:52;;;;;;;15.30;2.50;;;;;;;;;;4943395;28;20272;-67
2024/01/01 03:29:17;;;;;;;14.52;2.67;;;;;;;;;;4963927;28;20260;-67
2024/01/01 03:31:43;;;;;;;6.53;1.33;;;;;;;;;;4941380;29;20038;-67
2024/01/01 03:34:08;;;;;;;5.57;1.38;;;;;;;;;;4943711;28;20301;-67
2024/01/01 03:36:33;;;;;;;16.02;2.28;;;;;;;;;;4939981;29;20716;-67
2024/01/01 03:38:58;;;;;;;12.70;1.60;;;;;;;;;;4968469;28;20378;-67
2024/01/01 03:41:26;;;;;;;7.27;1.97;;;;;;;;;;4953132;28;20287;-67
2024/01/01 03:43:51;;;;;;;6.22;0.95;;;;;;;;;;4942517;29;20318;-67
2024/01/01 03:46:16;;;;;;;13.03;3.47;;;;;;;;;;4943672;29;20020;-67
2024/01/01 03:48:41;;;;;;;5.50;0.70;;;;;;;;;;4947201;28;20601;-67
2024/01/01 03:51:06;;;;;;;21.07;3.70;;;;;;;;;;4961071;28;20255;-67
2024/01/01 03:53:32;;;;;;;16.40;2.40;;;;;;;;;;4940321;28;20765;-67
2024/01/01 03:55:57;;;;;;;20.23;2.05;;;;;;;;;;4958622;28;20301;-67
2024/01/01 03:58:22;;;;;;;2.97;0.47;;;;;;;;;;4955212;28;20030;-67
2024/01/01 04:00:47;;;;;;;20.20;3.80;;;;;;;;;;4959324;28;20031;-67
2024/01/01 04:03:12;;;;;;;17.65;3.47;;;;;;;;;;4957513;28;20595;-67
2024/01/01 04:05:38;;;;;;;20.02;2.78;;;;;;;;;;4940524;28;20028;-67
2024/01/01 04:08:03;;;;;;;12.97;1.90;;;;;;;;;;4959958;28;20117;-67
2024/01/01 04:10:28;;;;;;;13.35;2.03;;;;;;;;;;4941399;28;20280;-67
2024/01/01 04:12:53;;;;;;;13.20;2.22;;;;;;;;;;4956164;28;20025;-67
2024/01/01 04:15:19;;;;;;;13.45;3.22;;;;;;;;;;4955519;28;20040;-67
2024/01/01 04:17:44;;;;;;;10.70;2.80;;;;;;;;;;4969590;28;20031;-67
2024/01/01 04:20:10;;;;;;;23.93;2.23;;;;;;;;;;4943831;29;20803;-67
2024/01/01 04:22:36;;;;;;;19.25;2.05;;;;;;;;;;4949511;28;20268;-67
2024/01/01 04:25:01;;;;;;;17.13;2.83;;;;;;;;;;4933963;29;20023;-67
2024/01/01 04:27:27;;;;;;;19.77;3.13;;;;;;;;;;4944485;28;20030;-68
2024/01/01 04:29:52;;;;;;;5.23;1.20;;;;;;;;;;4932313;29;20415;-67
2024/01/01 04:32:18;;;;;;;19.58;3.28;;;;;;;;;;4940341;28;20255;-67
2024/01/01 04:34:43;;;;;;;23.35;4.40;;;;;;;;;;4937684;28;20031;-67
2024/01/01 04:37:08;;;;;;;26.77;3.83;;;;;;;;;;4940263;29;20054;-67
2024/01/01 04:39:33;;;;;;;17.13;2.20;;;;;;;;;;4940833;28;20358;-67
2024/01/01 04:41:58;;;;;;;18.95;2.63;;;;;;;;;;4963196;28;20278;-67
2024/01/01 04:44:23;;;;;;;11.83;2.33;;;;;;;;;;4979500;28;20052;-67
2024/01/01 04:46:49;;;;;;;21.17;2.80;;;;;;;;;;4941170;28;20248;-67
2024/01/01 04:49:14;;;;;;;22.10;3.13;;;;;;;;;;4952158;28;20023;-67
2024/01/01 04:51:39;;;;;;;10.52;2.80;;;;;;;;;;4937589;29;20024;-67
2024/01/01 04:54:04;;;;;;;12.43;3.08;;;;;;;;;;4957227;28;20104;-68
2024/01/01 04:56:29;;;;;;;19.87;2.00;;;;;;;;;;4948523;28;20387;-67
2024/01/01 04:58:55;;;;;;;17.40;3.90;;;;;;;;;;4940126;28;20286;-67
2024/01/01 05:01:20;;;;;;;13.60;2.10;;;;;;;;;;4950647;28;20650;-67
2024/01/01 05:03:45;;;;;;;12.13;1.67;;;;;;;;;;4943880;28;20287;-67
2024/01/01 05:06:10;;;;;;;7.43;1.63;;;;;;;;;;4960220;28;20073;-67
2024/01/01 05:08:36;;;;;;;11.83;2.07;;;;;;;;;;4957085;28;20260;-67
2024/01/01 05:11:04;;;;;;;10.93;1.80;;;;;;;;;;4972115;28;20264;-67
2024/01/01 05:13:29;;;;;;;10.32;1.52;;;;;;;;;;4944980;28;20342;-67
2024/01/01 05:15:55;;;;;;;20.23;2.03;;;;;;;;;;4940941;28;20122;-67
2024/01/01 05:18:20;;;;;;;22.60;3.00;;;;;;;;;;4950349;28;20639;-67
2024/01/01 05:20:45;;;;;;;17.67;2.97;;;;;;;;;;4936352;28;20275;-67
2024/01/01 05:23:10;;;;;;;8.53;2.23;;;;;;;;;;4941121;28;20625;-67
2024/01/01 05:25:35;;;;;;;14.97;2.57;;;;;;;;;;4939925;29;20279;-67
2024/01/01 05:28:01;;;;;;;13.45;1.75;;;;;;;;;;4943015;28;20254;-67
2024/01/01 05:30:29;;;;;;;13.20;2.35;;;;;;;;;;4939398;28;20032;-67
2024/01/01 05:32:54;;;;;;;14.63;2.47;;;;;;;;;;4940909;28;20027;-67
2024/01/01 05:35:19;;;;;;;8.73;1.60;;;;;;;;;;4947446;28;20031;-67
2024/01/01 05:37:44;;;;;;;20.37;2.00;;;;;;;;;;4938247;28;20040;-67
2024/01/01 05:40:10;;;;;;;10.73;1.97;;;;;;;;;;4946263;28;20263;-67
2024/01/01 05:42:35;;;;;;;4.57;1.23;;;;;;;;;;4943642;28;20264;-67
2024/01/01 05:45:00;;;;;;;13.03;3.77;;;;;;;;;;4943839;28;20517;-67
2024/01/01 05:47:25;;;;;;;12.93;2.28;;;;;;;;;;4940654;28;20255;-67
2024/01/01 05:49:51;;;;;;;29.13;2.85;;;;;;;;;;4947333;28;20102;-67
2024/01/01 05:52:17;;;;;;;14.00;2.40;;;;;;;;;;4976567;28;20022;-67
2024/01/01 05:54:42;;;;;;;13.75;2.17;;;;;;;;;;4940472;28;20111;-67
2024/01/01 05:57:08;;;;;;;9.05;1.95;;;;;;;;;;4946094;28;20489;-67
2024/01/01 05:59:33;;;;;;;10.63;2.07;;;;;;;;;;4944349;29;20070;-67
2024/01/01 06:01:58;;;;;;;22.23;3.77;;;;;;;;;;4944129;28;20350;-67
2024/01/01 06:04:23;;;;;;;18.93;2.00;;;;;;;;;;4944733;29;20260;-67
2024/01/01 06:06:48;;;;;;;21.83;2.28;;;;;;;;;;4944816;28;20782;-67
2024/01/01 06:09:13;;;;;;;12.63;2.63;;;;;;;;;;4957067;28;20436;-67
2024/01/01 06:11:39;;;;;;;29.37;3.20;;;;;;;;;;4946770;28;20422;-67
2024/01/01 06:14:04;;;;;;;20.40;2.60;;;;;;;;;;4940987;28;20294;-67
2024/01/01 06:16:29;;;;;;;18.90;2.53;;;;;;;;;;4944375;29;20992;-67
2024/01/01 06:18:54;;;;;;;26.00;2.87;;;;;;;;;;4955910;28;20272;-67
2024/01/01 06:21:19;;;;;;;14.73;1.35;;;;;;;;;;4958188;28;20610;-67
2024/01/01 06:23:45;;;;;;;11.70;1.95;;;;;;;;;;4950174;28;20035;-67
2024/01/01 06:26:11;;;;;;;10.82;1.70;;;;;;;;;;4957039;28;20150;-67
2024/01/01 06:28:36;;;;;;;27.42;2.03;;;;;;;;;;4941694;29;20038;-67
2024/01/01 06:31:01;;;;;;;15.43;2.40;;;;;;;;;;4946131;29;20066;-67
2024/01/01 06:33:27;;;;;;;8.13;1.53;;;;;;;;;;4965004;28;20474;-67
2024/01/01 06:35:52;;;;;;;13.38;1.92;;;;;;;;;;4936891;29;20438;-67
2024/01/01 06:38:17;;;;;;;8.07;1.27;;;;;;;;;;4936241;29;20027;-67
2024/01/01 06:40:43;;;;;;;11.80;1.87;;;;;;;;;;4948297;28;20272;-67
2024/01/01 06:43:08;;;;;;;23.25;2.65;;;;;;;;;;4945607;28;20255;-67
2024/01/01 06:45:34;;;;;;;11.70;2.07;;;;;;;;;;4953784;28;20015;-67
2024/01/01 06:47:59;;;;;;;0.70;0.60;;;;;;;;;;4950939;28;20491;-67
2024/01/01 06:50:24;;;;;;;17.27;2.27;;;;;;;;;;4957976;28;20263;-67
2024/01/01 06:52:49;;;;;;;10.57;2.17;;;;;;;;;;4944631;29;20347;-67
2024/01/01 06:55:17;;;;;;;35.00;2.83;;;;;;;;;;4949506;28;20282;-67
2024/01/01 06:57:43;;;;;;;24.42;3.08;;;;;;;;;;4955746;28;20052;-67
2024/01/01 07:00:08;;;;;;;15.23;1.85;;;;;;;;;;4955348;28;20077;-67
2024/01/01 07:02:33;;;;;;;13.55;3.40;;;;;;;;;;4956680;28;20030;-67
2024/01/01 07:04:59;;;;;;;17.43;2.40;;;;;;;;;;4947643;28;20045;-67
2024/01/01 07:07:24;;;;;;;14.30;3.43;;;;;;;;;;4942101;29;20263;-67
2024/01/01 07:09:49;;;;;;;9.00;1.17;;;;;;;;;;4944246;29;20363;-67
2024/01/01 07:12:21;;;;;;;14.30;2.67;;;;;;;;;;4941616;29;20287;-67
2024/01/01 07:14:46;;;;;;;22.20;3.08;;;;;;;;;;4957515;28;20282;-67
2024/01/01 07:17:12;;;;;;;12.48;1.50;;;;;;;;;;4941305;29;20570;-67
2024/01/01 07:19:38;;;;;;;17.67;1.92;;;;;;;;;;4952481;28;20030;-67
2024/01/01 07:22:04;;;;;;;13.90;1.63;;;;;;;;;;4952950;28;20023;-67
2024/01/01 07:24:29;;;;;;;5.15;1.30;;;;;;;;;;4941304;28;20047;-67
2024/01/01 07:26:54;;;;;;;13.20;2.80;;;;;;;;;;4941573;28;20130;-67
2024/01/01 07:29:19;;;;;;;20.47;2.53;;;;;;;;;;4962458;28;20055;-67
2024/01/01 07:31:45;;;;;;;13.27;2.20;;;;;;;;;;4937556;28;20638;-67
2024/01/01 07:34:10;;;;;;;9.95;2.30;;;;;;;;;;4970354;28;20260;-67
2024/01/01 07:36:35;;;;;;;14.23;2.65;;;;;;;;;;4948182;28;20110;-68
2024/01/01 07:39:00;;;;;;;11.20;1.77;;;;;;;;;;4949931;28;20027;-67
2024/01/01 07:41:26;;;;;;;6.30;1.57;;;;;;;;;;4940031;29;20809;-67
2024/01/01 07:43:51;;;;;;;8.53;1.83;;;;;;;;;;4946769;28;20267;-67
2024/01/01 07:46:17;;;;;;;3.33;1.05;;;;;;;;;;4994549;28;20314;-67
2024/01/01 07:48:42;;;;;;;7.97;2.58;;;;;;;;;;4996466;28;20022;-67
2024/01/01 07:51:07;;;;;;;4.70;1.35;;;;;;;;;;4957193;28;20114;-67
2024/01/01 07:53:33;;;;;;;5.85;2.13;;;;;;;;;;4946115;28;20050;-67
2024/01/01 07:56:00;;;;;;;12.18;1.92;;;;;;;;;;4945116;29;20069;-67
2024/01/01 07:58:25;;;;;;;5.82;0.98;;;;;;;;;;4943653;28;20023;-67
2024/01/01 08:00:50;;;;;;;10.53;1.00;;;;;;;;;;4983005;28;20079;-67
2024/01/01 08:03:17;;;;;;;3.92;0.98;;;;;;;;;;4984823;28;20274;-67
2024/01/01 08:05:42;;;;;;;9.90;0.93;;;;;;;;;;4942586;29;20036;-67
2024/01/01 08:08:08;;;;;;;15.63;1.60;;;;;;;;;;4943883;29;20038;-67
2024/01/01 08:10:33;;;;;;;5.03;1.10;;;;;;;;;;4942075;29;20255;-66
2024/01/01 08:12:58;;;;;;;1.63;0.70;;;;;;;;;;4942207;29;20030;-67
2024/01/01 08:15:24;;;;;;;7.73;1.13;;;;;;;;;;4942082;29;20035;-67
2024/01/01 08:17:49;;;;;;;8.30;0.90;;;;;;;;;;4984934;28;20275;-67
2024/01/01 08:20:14;;;;;;;7.47;1.43;;;;;;;;;;4994666;28;20023;-67
2024/01/01 08:22:40;;;;;;;10.05;1.23;;;;;;;;;;4942939;28;20272;-67
2024/01/01 08:25:05;;;;;;;0.60;0.47;;;;;;;;;;4955720;28;20109;-67
2024/01/01 08:27:30;;;;;;;6.45;0.50;;;;;;;;;;5021904;28;20021;-67
2024/01/01 08:29:55;;;;;;;3.17;0.70;;;;;;;;;;4952712;28;20227;-66
2024/01/01 08:32:20;;;;;;;1.20;0.38;;;;;;;;;;4998211;28;20285;-67
2024/01/01 08:34:46;;;;;;;6.65;0.80;;;;;;;;;;4996954;28;20029;-67
2024/01/01 08:37:11;;;;;;;2.87;1.10;;;;;;;;;;4963326;28;20023;-67
2024/01/01 08:39:36;;;;;;;6.10;1.20;;;;;;;;;;4938595;29;20279;-67
2024/01/01 08:42:01;;;;;;;2.30;0.43;;;;;;;;;;4945134;29;20377;-67
2024/01/01 08:44:26;;;;;;;0.50;0.50;;;;;;;;;;4955253;28;20306;-67
2024/01/01 08:46:52;;;;;;;4.70;1.40;;;;;;;;;;5007827;28;20021;-67
2024/01/01 08:49:17;;;;;;;4.25;0.88;;;;;;;;;;4941375;28;20753;-66
2024/01/01 08:51:42;;;;;;;6.10;0.60;;;;;;;;;;4942664;28;20097;-67
2024/01/01 08:54:07;;;;;;;1.58;0.45;;;;;;;;;;4943262;28;20037;-67
2024/01/01 08:56:33;;;;;;;2.40;0.95;;;;;;;;;;4939576;28;20383;-67
2024/01/01 08:58:58;;;;;;;3.10;0.95;;;;;;;;;;4961000;28;20536;-67
2024/01/01 09:01:23;;;;;;;2.77;0.67;;;;;;;;;;4991376;28;20018;-67
2024/01/01 09:03:48;;;;;;;7.22;0.60;;;;;;;;;;4942260;28;20683;-67
2024/01/01 09:06:13;;;;;;;11.48;1.30;;;;;;;;;;4938955;28;20074;-67
2024/01/01 09:08:39;;;;;;;4.63;0.67;;;;;;;;;;4941794;28;20039;-67
2024/01/01 09:11:04;;;;;;;2.67;0.60;;;;;;;;;;4950009;28;20286;-67
2024/01/01 09:13:29;;;;;;;10.30;0.97;;;;;;;;;;4945141;28;20266;-68
2024/01/01 09:15:54;;;;;;;5.43;0.95;;;;;;;;;;4970436;28;20646;-68
2024/01/01 09:18:20;;;;;;;4.70;1.03;;;;;;;;;;4973754;28;20477;-69
2024/01/01 09:20:45;;;;;;;5.53;0.87;;;;;;;;;;4963008;28;20270;-68
2024/01/01 09:23:10;;;;;;;2.38;1.17;;;;;;;;;;4943177;29;20259;-67
2024/01/01 09:25:39;;;;;;;3.45;0.85;;;;;;;;;;4941543;29;20042;-67
2024/01/01 09:28:05;;;;;;;4.77;1.10;;;;;;;;;;4947854;28;20027;-66
2024/01/01 09:30:30;;;;;;;7.13;1.27;;;;;;;;;;4943945;28;20305;-68
2024/01/01 09:32:55;;;;;;;12.57;0.87;;;;;;;;;;5004465;28;20306;-69
2024/01/01 09:35:20;;;;;;;5.70;1.07;;;;;;;;;;4957610;28;20337;-69
2024/01/01 09:37:45;;;;;;;4.10;0.73;;;;;;;;;;4940244;29;20278;-68
2024/01/01 09:40:11;;;;;;;7.67;0.80;;;;;;;;;;4948187;29;20251;-68
2024/01/01 09:42:36;;;;;;;10.32;1.00;;;;;;;;;;4946321;29;20274;-68
2024/01/01 09:45:01;;;;;;;14.02;1.20;;;;;;;;;;4947605;28;20027;-68
2024/01/01 09:47:30;;;;;;;5.93;1.00;;;;;;;;;;4942917;28;20058;-68
2024/01/01 09:49:56;;;;;;;2.05;0.77;;;;;;;;;;4984616;28;20039;-68
2024/01/01 09:52:21;;;;;;;6.17;0.77;;;;;;;;;;4944320;29;20490;-68
2024/01/01 09:54:46;;;;;;;4.93;0.67;;;;;;;;;;4945898;28;20312;-68
2024/01/01 09:57:11;;;;;;;5.57;1.30;;;;;;;;;;4943214;28;20341;-68
2024/01/01 09:59:37;;;;;;;7.35;0.77;;;;;;;;;;4946414;29;20255;-68
2024/01/01 10:02:09;;;;;;;2.38;1.08;;;;;;;;;;4933105;28;20214;-68
2024/01/01 10:04:34;;;;;;;1.83;0.50;;;;;;;;;;4948998;28;20034;-68
2024/01/01 10:07:00;;;;;;;2.10;0.50;;;;;;;;;;4981607;28;20044;-68
2024/01/01 10:09:25;;;;;;;8.32;0.88;;;;;;;;;;4985541;28;20365;-68
2024/01/01 10:11:50;;;;;;;5.10;0.93;;;;;;;;;;4969437;28;20067;-68
2024/01/01 10:14:15;;;;;;;1.83;0.57;;;;;;;;;;4941622;28;20477;-68
2024/01/01 10:16:41;;;;;;;12.27;1.58;;;;;;;;;;4936283;28;20494;-68
2024/01/01 10:19:07;;;;;;;15.43;1.08;;;;;;;;;;4935728;28;20031;-68
2024/01/01 10:21:34;;;;;;;3.65;0.90;;;;;;;;;;4952097;28;20025;-69
2024/01/01 10:24:15;;;;;;;8.10;1.73;;;;;;;;;;4976529;28;20119;-68
2024/01/01 10:26:44;;;;;;;12.45;1.38;;;;;;;;;;4957110;28;20039;-68
2024/01/01 10:29:10;;;;;;;2.13;0.68;;;;;;;;;;4935770;28;20027;-68
2024/01/01 10:31:36;;;;;;;4.47;1.40;;;;;;;;;;4929901;29;20453;-68
2024/01/01 10:34:03;;;;;;;5.85;1.45;;;;;;;;;;4931396;28;20019;-68
2024/01/01 10:36:28;;;;;;;9.98;1.65;;;;;;;;;;4930443;28;20028;-69
2024/01/01 10:38:55;;;;;;;7.37;1.60;;;;;;;;;;4934165;28;20038;-68
2024/01/01 10:41:20;;;;;;;10.63;1.50;;;;;;;;;;4931652;28;20260;-68
2024/01/01 10:43:46;;;;;;;8.40;1.37;;;;;;;;;;4987328;28;20031;-68
2024/01/01 10:46:11;;;;;;;8.70;1.48;;;;;;;;;;4942228;28;20294;-68
2024/01/01 10:48:37;;;;;;;0.95;0.47;;;;;;;;;;4933344;28;20031;-68
2024/01/01 10:51:21;;;;;;;9.57;1.48;;;;;;;;;;4943968;28;20103;-68
2024/01/01 10:53:49;;;;;;;11.82;1.27;;;;;;;;;;4942154;29;20028;-68
2024/01/01 10:56:14;;;;;;;8.98;1.00;;;;;;;;;;4936557;28;20090;-68
2024/01/01 10:58:42;;;;;;;13.35;1.85;;;;;;;;;;4934469;28;20024;-68
2024/01/01 11:01:15;;;;;;;5.72;1.52;;;;;;;;;;4945699;28;20042;-68
2024/01/01 11:03:41;;;;;;;8.13;1.50;;;;;;;;;;4972190;28;20045;-68
2024/01/01 11:06:31;;;;;;;6.30;1.08;;;;;;;;;;4960894;28;20626;-68
2024/01/01 11:08:56;;;;;;;2.83;1.17;;;;;;;;;;4938235;29;20031;-69
2024/01/01 11:11:22;;;;;;;3.72;0.90;;;;;;;;;;4925817;29;20031;-68
2024/01/01 11:13:50;;;;;;;8.05;1.30;;;;;;;;;;4928784;29;20070;-68
2024/01/01 11:16:15;;;;;;;13.48;1.67;;;;;;;;;;4964283;28;20031;-68
2024/01/01 11:18:40;;;;;;;5.30;1.13;;;;;;;;;;4954391;28;20036;-68
2024/01/01 11:21:07;;;;;;;7.35;1.45;;;;;;;;;;4938923;28;20666;-68
2024/01/01 11:23:42;;;;;;;11.82;1.80;;;;;;;;;;4934875;28;20024;-68
2024/01/01 11:26:22;;;;;;;11.07;1.60;;;;;;;;;;4927400;28;20039;-68
2024/01/01 11:28:48;;;;;;;10.45;0.80;;;;;;;;;;4927382;28;20238;-68
2024/01/01 11:31:13;;;;;;;3.28;1.10;;;;;;;;;;4956141;28;20570;-68
2024/01/01 11:33:39;;;;;;;7.13;1.10;;;;;;;;;;4978650;28;20101;-68
2024/01/01 11:36:05;;;;;;;11.70;3.72;;;;;;;;;;4928626;28;20080;-68
2024/01/01 11:38:30;;;;;;;5.15;1.48;;;;;;;;;;4928363;28;20019;-68
2024/01/01 11:40:56;;;;;;;11.63;1.90;;;;;;;;;;4928824;28;20541;-68
2024/01/01 11:43:21;;;;;;;3.78;1.02;;;;;;;;;;4933135;28;20290;-68
2024/01/01 11:45:46;;;;;;;6.83;1.50;;;;;;;;;;4934025;28;20043;-68
2024/01/01 11:48:11;;;;;;;3.40;1.13;;;;;;;;;;4934977;28;20772;-68
2024/01/01 11:50:37;;;;;;;13.23;1.33;;;;;;;;;;4930634;28;20279;-68
2024/01/01 11:53:02;;;;;;;14.35;1.45;;;;;;;;;;4933748;28;20057;-68
2024/01/01 11:55:27;;;;;;;9.18;1.20;;;;;;;;;;4961810;28;20037;-69
2024/01/01 11:57:52;;;;;;;7.67;1.70;;;;;;;;;;4937232;28;20099;-68
2024/01/01 12:00:18;;;;;;;6.88;1.45;;;;;;;;;;4932761;28;20283;-69
2024/01/01 12:02:43;;;;;;;4.03;1.33;;;;;;;;;;4957732;28;20596;-68
2024/01/01 12:05:08;;;;;;;4.55;1.25;;;;;;;;;;4965506;28;20031;-68
2024/01/01 12:07:35;;;;;;;8.25;1.70;;;;;;;;;;4984309;28;20488;-68
2024/01/01 12:10:02;;;;;;;6.63;1.10;;;;;;;;;;4976604;28;20023;-69
2024/01/01 12:12:27;;;;;;;7.70;1.17;;;;;;;;;;4952807;28;20435;-69
2024/01/01 12:14:52;;;;;;;0.98;0.73;;;;;;;;;;4975772;28;20057;-68
2024/01/01 12:17:18;;;;;;;7.70;1.07;;;;;;;;;;4942063;28;20023;-67
2024/01/01 12:19:43;;;;;;;6.43;1.33;;;;;;;;;;4970024;28;20252;-67
2024/01/01 12:22:19;;;;;;;5.78;1.13;;;;;;;;;;4940026;28;20023;-67
2024/01/01 12:24:45;;;;;;;6.70;1.08;;;;;;;;;;4968297;28;20479;-68
2024/01/01 12:27:14;;;;;;;3.07;0.77;;;;;;;;;;4940367;28;20052;-68
2024/01/01 12:29:48;;;;;;;4.28;0.85;;;;;;;;;;4978840;28;20264;-68
2024/01/01 12:32:14;;;;;;;4.57;1.40;;;;;;;;;;4935875;28;20474;-68
2024/01/01 12:34:39;;;;;;;8.85;1.95;;;;;;;;;;4963764;28;20035;-69
2024/01/01 12:37:04;;;;;;;2.83;1.03;;;;;;;;;;4942193;28;20035;-68
2024/01/01 12:39:29;;;;;;;8.07;1.67;;;;;;;;;;4968365;28;20343;-68
2024/01/01 12:41:54;;;;;;;11.73;1.15;;;;;;;;;;4949178;28;20264;-68
2024/01/01 12:44:19;;;;;;;15.87;1.50;;;;;;;;;;4948409;28;20230;-68
2024/01/01 12:46:45;;;;;;;9.70;1.43;;;;;;;;;;4952930;28;20272;-69
2024/01/01 12:49:10;;;;;;;13.77;2.03;;;;;;;;;;4952484;28;20421;-68
2024/01/01 12:51:35;;;;;;;18.05;1.40;;;;;;;;;;4966395;28;20279;-69
2024/01/01 12:54:01;;;;;;;14.68;1.23;;;;;;;;;;4951003;28;20508;-68
2024/01/01 12:56:27;;;;;;;23.45;3.25;;;;;;;;;;4966602;28;20031;-68
2024/01/01 12:58:53;;;;;;;18.67;2.47;;;;;;;;;;4943948;28;20018;-68
2024/01/01 13:01:18;;;;;;;17.80;2.35;;;;;;;;;;4963136;28;20382;-68
2024/01/01 13:03:44;;;;;;;18.80;3.83;;;;;;;;;;4949325;28;20052;-68
2024/01/01 13:06:10;;;;;;;12.70;2.13;;;;;;;;;;4954874;28;20084;-68
2024/01/01 13:08:36;;;;;;;8.77;2.25;;;;;;;;;;4954300;28;20034;-69
2024/01/01 13:11:01;;;;;;;10.02;2.35;;;;;;;;;;4957219;28;20031;-69
2024/01/01 13:13:26;;;;;;;10.73;1.85;;;;;;;;;;4951776;28;20070;-68
2024/01/01 13:15:51;;;;;;;13.05;2.53;;;;;;;;;;4976258;28;20032;-69
2024/01/01 13:18:16;;;;;;;12.90;2.67;;;;;;;;;;4968485;28;20045;-69
2024/01/01 13:20:42;;;;;;;14.80;2.35;;;;;;;;;;4958915;28;20263;-69
2024/01/01 13:23:15;;;;;;;9.18;2.05;;;;;;;;;;4939069;28;20490;-69
2024/01/01 13:25:41;;;;;;;19.40;3.22;;;;;;;;;;4961743;28;20030;-68
2024/01/01 13:28:06;;;;;;;19.63;2.60;;;;;;;;;;4929095;28;20126;-68
2024/01/01 13:30:32;;;;;;;12.05;1.45;;;;;;;;;;4965248;28;20022;-69
2024/01/01 13:32:57;;;;;;;16.50;2.50;;;;;;;;;;4943266;28;20019;-68
2024/01/01 13:35:22;;;;;;;16.97;2.87;;;;;;;;;;4975438;28;20503;-69
2024/01/01 13:37:47;;;;;;;7.23;2.17;;;;;;;;;;4959103;28;20280;-68
2024/01/01 13:40:12;;;;;;;15.27;2.93;;;;;;;;;;4977178;28;20335;-68
2024/01/01 13:42:38;;;;;;;11.85;2.15;;;;;;;;;;4947398;28;20272;-68
2024/01/01 13:45:04;;;;;;;14.68;2.72;;;;;;;;;;4974026;28;20023;-68
2024/01/01 13:47:29;;;;;;;26.65;3.03;;;;;;;;;;5004756;28;20057;-68
2024/01/01 13:49:54;;;;;;;13.48;2.55;;;;;;;;;;4957123;28;20048;-68
2024/01/01 13:52:19;;;;;;;22.03;2.47;;;;;;;;;;4946083;28;20059;-69
2024/01/01 13:54:45;;;;;;;16.85;2.55;;;;;;;;;;4965484;28;20674;-69
2024/01/01 13:57:10;;;;;;;16.40;2.38;;;;;;;;;;4947462;28;20015;-68
2024/01/01 13:59:35;;;;;;;18.42;2.55;;;;;;;;;;4967025;28;20083;-68
2024/01/01 14:02:02;;;;;;;14.40;2.25;;;;;;;;;;4960051;28;20023;-68
2024/01/01 14:04:27;;;;;;;23.42;2.20;;;;;;;;;;4965073;28;20032;-68
2024/01/01 14:06:52;;;;;;;14.43;2.40;;;;;;;;;;4953957;28;20031;-68
2024/01/01 14:09:18;;;;;;;15.10;1.95;;;;;;;;;;4945729;28;20773;-68
2024/01/01 14:11:49;;;;;;;21.73;2.93;;;;;;;;;;4966077;28;20069;-68
2024/01/01 14:14:15;;;;;;;14.68;2.85;;;;;;;;;;4953400;28;20279;-68
2024/01/01 14:16:44;;;;;;;24.55;3.88;;;;;;;;;;4956472;28;20471;-68
2024/01/01 14:19:09;;;;;;;18.50;3.22;;;;;;;;;;4933875;28;20024;-69
2024/01/01 14:21:34;;;;;;;18.93;2.90;;;;;;;;;;4936138;28;20025;-68
2024/01/01 14:23:59;;;;;;;19.20;2.77;;;;;;;;;;4936540;28;20275;-69